createdAt,value
2017-01-08T00:00:32.810Z,2.67
2017-01-08T00:01:32.434Z,2.49
2017-01-08T00:02:33.163Z,2.48
2017-01-08T00:03:33.052Z,2.56
2017-01-08T00:04:32.124Z,2.64
2017-01-08T00:05:32.286Z,2.73
2017-01-08T00:06:32.660Z,2.77
2017-01-08T00:07:32.615Z,2.81
2017-01-08T00:08:32.957Z,2.81
2017-01-08T00:09:31.593Z,2.74
2017-01-08T00:10:32.711Z,2.77
2017-01-08T00:11:32.370Z,2.85
2017-01-08T00:12:32.151Z,2.64
2017-01-08T00:13:32.645Z,2.71
2017-01-08T00:14:32.851Z,2.79
2017-01-08T00:15:32.588Z,2.81
2017-01-08T00:16:31.727Z,2.8
2017-01-08T00:17:32.058Z,2.87
2017-01-08T00:18:32.015Z,2.98
2017-01-08T00:19:31.319Z,2.94
2017-01-08T00:20:31.967Z,2.97
2017-01-08T00:21:32.237Z,2.97
2017-01-08T00:22:31.890Z,3.02
2017-01-08T00:23:31.541Z,2.94
2017-01-08T00:24:31.858Z,2.97
2017-01-08T00:25:31.833Z,2.98
2017-01-08T00:26:32.466Z,2.94
2017-01-08T00:27:32.430Z,2.98
2017-01-08T00:28:32.393Z,2.97
2017-01-08T00:29:31.711Z,2.98
2017-01-08T00:30:31.685Z,3.03
2017-01-08T00:31:31.596Z,2.94
2017-01-08T00:32:31.829Z,2.97
2017-01-08T00:33:32.270Z,3.02
2017-01-08T00:34:31.590Z,2.91
2017-01-08T00:35:31.468Z,2.77
2017-01-08T00:36:31.824Z,2.98
2017-01-08T00:37:32.254Z,3.07
2017-01-08T00:38:31.800Z,3.07
2017-01-08T00:39:31.437Z,3.21
2017-01-08T00:40:31.747Z,3.24
2017-01-08T00:41:31.399Z,3.33
2017-01-08T00:42:31.391Z,3.37
2017-01-08T00:43:30.685Z,3.46
2017-01-08T00:44:31.636Z,3.44
2017-01-08T00:45:32.024Z,3.37
2017-01-08T00:46:30.721Z,3.35
2017-01-08T00:47:30.635Z,3.24
2017-01-08T00:48:30.472Z,3.15
2017-01-08T00:49:31.194Z,3.15
2017-01-08T00:50:31.151Z,3.17
2017-01-08T00:51:30.810Z,3.19
2017-01-08T00:52:31.795Z,3.17
2017-01-08T00:53:31.151Z,3.24
2017-01-08T00:54:31.032Z,3.21
2017-01-08T00:55:31.669Z,3.17
2017-01-08T00:56:30.901Z,3.21
2017-01-08T00:57:30.829Z,3.16
2017-01-08T00:58:30.972Z,3.1
2017-01-08T00:59:30.940Z,3.12
2017-01-08T01:00:30.908Z,3.21
2017-01-08T01:01:31.386Z,3.21
2017-01-08T01:02:31.474Z,3.21
2017-01-08T01:03:30.815Z,3.23
2017-01-08T01:04:30.124Z,3.28
2017-01-08T01:05:30.772Z,3.25
2017-01-08T01:06:30.595Z,3.31
2017-01-08T01:07:31.035Z,3.25
2017-01-08T01:08:31.031Z,3.19
2017-01-08T01:09:29.919Z,3.25
2017-01-08T01:10:31.291Z,3.24
2017-01-08T01:11:31.255Z,3.24
2017-01-08T01:12:31.218Z,3.19
2017-01-08T01:13:30.657Z,3.24
2017-01-08T01:14:30.881Z,3.23
2017-01-08T01:15:30.489Z,3.25
2017-01-08T01:16:30.487Z,3.17
2017-01-08T01:17:30.506Z,3.25
2017-01-08T01:18:30.749Z,3.21
2017-01-08T01:19:30.414Z,3.23
2017-01-08T01:20:30.371Z,3.24
2017-01-08T01:21:30.006Z,3.19
2017-01-08T01:22:30.844Z,3.16
2017-01-08T01:23:30.314Z,3.17
2017-01-08T01:24:30.603Z,3.21
2017-01-08T01:25:29.576Z,3.21
2017-01-08T01:26:30.875Z,3.16
2017-01-08T01:27:30.229Z,3.16
2017-01-08T01:28:30.800Z,3.25
2017-01-08T01:29:29.511Z,3.17
2017-01-08T01:30:30.131Z,3.19
2017-01-08T01:31:30.558Z,3.19
2017-01-08T01:32:30.720Z,3.16
2017-01-08T01:33:29.970Z,3.27
2017-01-08T01:34:29.588Z,3.21
2017-01-08T01:35:30.648Z,3.3
2017-01-08T01:36:29.969Z,3.27
2017-01-08T01:37:29.208Z,3.28
2017-01-08T01:38:29.902Z,3.28
2017-01-08T01:39:29.466Z,3.17
2017-01-08T01:40:29.106Z,3.23
2017-01-08T01:41:30.504Z,3.07
2017-01-08T01:42:29.796Z,3.21
2017-01-08T01:43:29.361Z,3.21
2017-01-08T01:44:30.244Z,3.12
2017-01-08T01:45:29.066Z,3.25
2017-01-08T01:46:30.060Z,3.16
2017-01-08T01:47:29.687Z,3.05
2017-01-08T01:48:29.941Z,3.23
2017-01-08T01:49:29.284Z,3.13
2017-01-08T01:50:30.190Z,3.24
2017-01-08T01:51:29.595Z,3.24
2017-01-08T01:52:29.600Z,3.21
2017-01-08T01:53:28.948Z,3.19
2017-01-08T01:54:30.209Z,3.24
2017-01-08T01:55:29.984Z,3.17
2017-01-08T01:56:29.942Z,3.27
2017-01-08T01:57:28.783Z,3.21
2017-01-08T01:58:29.392Z,3.25
2017-01-08T01:59:29.352Z,3.23
2017-01-08T02:00:29.648Z,3.21
2017-01-08T02:01:29.947Z,3.33
2017-01-08T02:02:29.294Z,3.37
2017-01-08T02:03:29.161Z,3.4
2017-01-08T02:04:28.943Z,3.4
2017-01-08T02:05:29.542Z,3.4
2017-01-08T02:06:29.162Z,3.34
2017-01-08T02:07:29.462Z,3.42
2017-01-08T02:08:29.139Z,3.31
2017-01-08T02:09:28.760Z,3.4
2017-01-08T02:10:29.769Z,3.34
2017-01-08T02:11:29.730Z,3.33
2017-01-08T02:12:29.084Z,3.3
2017-01-08T02:13:29.314Z,3.3
2017-01-08T02:14:28.978Z,3.43
2017-01-08T02:15:28.339Z,3.3
2017-01-08T02:16:28.821Z,3.35
2017-01-08T02:17:29.216Z,3.35
2017-01-08T02:18:28.892Z,3.28
2017-01-08T02:19:29.396Z,3.28
2017-01-08T02:20:29.363Z,3.19
2017-01-08T02:21:28.770Z,3.17
2017-01-08T02:22:28.000Z,3.27
2017-01-08T02:23:28.444Z,3.3
2017-01-08T02:24:27.959Z,3.25
2017-01-08T02:25:28.017Z,3.28
2017-01-08T02:26:28.956Z,3.34
2017-01-08T02:27:28.949Z,3.4
2017-01-08T02:28:28.521Z,3.34
2017-01-08T02:29:28.889Z,3.4
2017-01-08T02:30:28.573Z,3.44
2017-01-08T02:31:28.860Z,3.46
2017-01-08T02:32:28.506Z,3.43
2017-01-08T02:33:28.659Z,3.4
2017-01-08T02:34:27.795Z,3.44
2017-01-08T02:35:28.406Z,3.47
2017-01-08T02:36:28.397Z,3.43
2017-01-08T02:37:28.755Z,3.44
2017-01-08T02:38:28.998Z,3.44
2017-01-08T02:39:28.630Z,3.4
2017-01-08T02:40:28.164Z,3.4
2017-01-08T02:41:28.452Z,3.42
2017-01-08T02:42:28.219Z,3.43
2017-01-08T02:43:27.868Z,3.42
2017-01-08T02:44:28.182Z,3.37
2017-01-08T02:45:28.132Z,3.46
2017-01-08T02:46:28.444Z,3.6
2017-01-08T02:47:27.436Z,3.47
2017-01-08T02:48:27.332Z,3.49
2017-01-08T02:49:28.053Z,3.43
2017-01-08T02:50:28.085Z,3.54
2017-01-08T02:51:28.315Z,3.42
2017-01-08T02:52:28.688Z,3.47
2017-01-08T02:53:27.940Z,3.52
2017-01-08T02:54:27.614Z,3.52
2017-01-08T02:55:27.558Z,3.49
2017-01-08T02:56:27.863Z,3.57
2017-01-08T02:57:27.502Z,3.53
2017-01-08T02:58:27.072Z,3.52
2017-01-08T02:59:28.460Z,3.47
2017-01-08T03:00:28.448Z,3.67
2017-01-08T03:01:28.444Z,3.54
2017-01-08T03:02:27.719Z,3.64
2017-01-08T03:03:27.599Z,3.54
2017-01-08T03:04:27.660Z,3.68
2017-01-08T03:05:27.503Z,3.67
2017-01-08T03:06:27.944Z,3.65
2017-01-08T03:07:28.245Z,3.64
2017-01-08T03:08:27.739Z,3.68
2017-01-08T03:09:27.832Z,3.7
2017-01-08T03:10:26.879Z,3.64
2017-01-08T03:11:27.475Z,3.62
2017-01-08T03:12:27.044Z,3.54
2017-01-08T03:13:28.070Z,3.53
2017-01-08T03:14:27.300Z,3.56
2017-01-08T03:15:27.268Z,3.54
2017-01-08T03:16:26.711Z,3.6
2017-01-08T03:17:27.676Z,3.61
2017-01-08T03:18:27.219Z,3.6
2017-01-08T03:19:27.161Z,3.53
2017-01-08T03:20:27.291Z,3.61
2017-01-08T03:21:27.924Z,3.7
2017-01-08T03:22:26.863Z,3.7
2017-01-08T03:23:26.877Z,3.68
2017-01-08T03:24:27.010Z,3.68
2017-01-08T03:25:27.165Z,3.6
2017-01-08T03:26:27.106Z,3.64
2017-01-08T03:27:27.569Z,3.56
2017-01-08T03:28:27.558Z,3.56
2017-01-08T03:29:27.662Z,3.53
2017-01-08T03:30:26.990Z,3.52
2017-01-08T03:31:27.291Z,3.61
2017-01-08T03:32:27.597Z,3.57
2017-01-08T03:33:26.905Z,3.57
2017-01-08T03:34:26.462Z,3.62
2017-01-08T03:35:27.521Z,3.47
2017-01-08T03:36:26.841Z,3.57
2017-01-08T03:37:27.130Z,3.6
2017-01-08T03:38:27.282Z,3.57
2017-01-08T03:39:27.410Z,3.53
2017-01-08T03:40:26.722Z,3.61
2017-01-08T03:41:26.281Z,3.61
2017-01-08T03:42:27.190Z,3.57
2017-01-08T03:43:26.978Z,3.53
2017-01-08T03:44:26.613Z,3.6
2017-01-08T03:45:26.701Z,3.6
2017-01-08T03:46:26.908Z,3.56
2017-01-08T03:47:27.196Z,3.62
2017-01-08T03:48:26.870Z,3.62
2017-01-08T03:49:27.155Z,3.6
2017-01-08T03:50:27.124Z,3.62
2017-01-08T03:51:26.968Z,3.71
2017-01-08T03:52:26.429Z,3.67
2017-01-08T03:53:27.019Z,3.68
2017-01-08T03:54:26.027Z,3.68
2017-01-08T03:55:26.399Z,3.65
2017-01-08T03:56:26.962Z,3.68
2017-01-08T03:57:26.191Z,3.71
2017-01-08T03:58:26.137Z,3.74
2017-01-08T03:59:26.206Z,3.7
2017-01-08T04:00:26.207Z,3.74
2017-01-08T04:01:25.839Z,3.79
2017-01-08T04:02:26.158Z,3.78
2017-01-08T04:03:26.623Z,3.79
2017-01-08T04:04:25.358Z,3.74
2017-01-08T04:05:26.075Z,3.75
2017-01-08T04:06:25.825Z,3.72
2017-01-08T04:07:26.662Z,3.68
2017-01-08T04:08:25.657Z,3.7
2017-01-08T04:09:26.625Z,3.7
2017-01-08T04:10:25.213Z,3.78
2017-01-08T04:11:25.842Z,3.79
2017-01-08T04:12:26.578Z,3.79
2017-01-08T04:13:25.857Z,3.82
2017-01-08T04:14:25.114Z,3.83
2017-01-08T04:15:26.467Z,3.8
2017-01-08T04:16:26.125Z,3.9
2017-01-08T04:17:25.807Z,3.98
2017-01-08T04:18:26.080Z,3.87
2017-01-08T04:19:26.348Z,3.97
2017-01-08T04:20:26.219Z,3.98
2017-01-08T04:21:25.518Z,3.97
2017-01-08T04:22:26.011Z,3.92
2017-01-08T04:23:26.297Z,3.95
2017-01-08T04:24:25.942Z,3.97
2017-01-08T04:25:25.225Z,4.07
2017-01-08T04:26:25.568Z,4.07
2017-01-08T04:27:25.186Z,4.1
2017-01-08T04:28:25.824Z,4.11
2017-01-08T04:29:24.923Z,4.03
2017-01-08T04:30:24.706Z,4.11
2017-01-08T04:31:25.754Z,4.03
2017-01-08T04:32:26.013Z,4.05
2017-01-08T04:33:25.383Z,4.11
2017-01-08T04:34:26.002Z,4.07
2017-01-08T04:35:25.320Z,4
2017-01-08T04:36:25.946Z,4.04
2017-01-08T04:37:25.258Z,3.98
2017-01-08T04:38:24.960Z,3.95
2017-01-08T04:39:24.569Z,3.98
2017-01-08T04:40:25.178Z,3.93
2017-01-08T04:41:24.839Z,3.98
2017-01-08T04:42:25.472Z,3.95
2017-01-08T04:43:24.379Z,3.95
2017-01-08T04:44:25.836Z,3.93
2017-01-08T04:45:25.002Z,3.89
2017-01-08T04:46:25.112Z,3.95
2017-01-08T04:47:24.736Z,4
2017-01-08T04:48:25.515Z,3.9
2017-01-08T04:49:24.740Z,3.97
2017-01-08T04:50:24.593Z,3.95
2017-01-08T04:51:24.344Z,3.93
2017-01-08T04:52:24.886Z,3.97
2017-01-08T04:53:25.041Z,3.97
2017-01-08T04:54:25.491Z,3.95
2017-01-08T04:55:25.473Z,3.95
2017-01-08T04:56:25.085Z,3.93
2017-01-08T04:57:24.744Z,3.95
2017-01-08T04:58:24.650Z,3.93
2017-01-08T04:59:25.026Z,4.04
2017-01-08T05:00:24.809Z,4.1
2017-01-08T05:01:25.179Z,4.1
2017-01-08T05:02:25.148Z,3.97
2017-01-08T05:03:25.128Z,3.98
2017-01-08T05:04:25.227Z,3.98
2017-01-08T05:05:23.887Z,4.05
2017-01-08T05:06:24.846Z,4.01
2017-01-08T05:07:24.446Z,3.93
2017-01-08T05:08:25.136Z,3.98
2017-01-08T05:09:25.102Z,4.01
2017-01-08T05:10:24.094Z,4.1
2017-01-08T05:11:25.046Z,4.07
2017-01-08T05:12:24.037Z,4.07
2017-01-08T05:13:23.933Z,4.07
2017-01-08T05:14:24.833Z,4.07
2017-01-08T05:15:24.098Z,4.03
2017-01-08T05:16:24.288Z,4.05
2017-01-08T05:17:24.582Z,4.11
2017-01-08T05:18:24.537Z,4.1
2017-01-08T05:19:24.720Z,4.22
2017-01-08T05:20:24.340Z,4.19
2017-01-08T05:21:24.809Z,4.23
2017-01-08T05:22:23.791Z,4.21
2017-01-08T05:23:24.131Z,4.19
2017-01-08T05:24:24.090Z,4.19
2017-01-08T05:25:24.698Z,4.13
2017-01-08T05:26:24.698Z,4.18
2017-01-08T05:27:24.318Z,4.13
2017-01-08T05:28:24.292Z,4.15
2017-01-08T05:29:24.612Z,4.15
2017-01-08T05:30:23.284Z,4.19
2017-01-08T05:31:23.561Z,4.22
2017-01-08T05:32:23.864Z,4.29
2017-01-08T05:33:23.753Z,4.21
2017-01-08T05:34:24.139Z,4.23
2017-01-08T05:35:23.786Z,4.16
2017-01-08T05:36:23.032Z,4.08
2017-01-08T05:37:24.250Z,4.08
2017-01-08T05:38:24.219Z,4.11
2017-01-08T05:39:23.606Z,4.21
2017-01-08T05:40:23.724Z,4.16
2017-01-08T05:41:24.141Z,4.16
2017-01-08T05:42:23.645Z,4.11
2017-01-08T05:43:23.903Z,4.11
2017-01-08T05:44:23.047Z,4.13
2017-01-08T05:45:23.466Z,4.08
2017-01-08T05:46:23.525Z,4.08
2017-01-08T05:47:24.215Z,4.1
2017-01-08T05:48:23.795Z,4.1
2017-01-08T05:49:22.617Z,4.07
2017-01-08T05:50:24.065Z,4.08
2017-01-08T05:51:22.994Z,4.05
2017-01-08T05:52:23.269Z,4.07
2017-01-08T05:53:23.252Z,4.1
2017-01-08T05:54:22.987Z,4.1
2017-01-08T05:55:22.873Z,4.1
2017-01-08T05:56:23.162Z,4.22
2017-01-08T05:57:23.234Z,4.15
2017-01-08T05:58:23.735Z,4.1
2017-01-08T05:59:23.856Z,4.19
2017-01-08T06:00:23.814Z,4.1
2017-01-08T06:01:22.428Z,4.23
2017-01-08T06:02:22.773Z,4.28
2017-01-08T06:03:22.740Z,4.26
2017-01-08T06:04:23.043Z,4.22
2017-01-08T06:05:23.366Z,4.23
2017-01-08T06:06:23.187Z,4.21
2017-01-08T06:07:23.315Z,4.18
2017-01-08T06:08:22.303Z,4.25
2017-01-08T06:09:22.872Z,4.1
2017-01-08T06:10:23.559Z,4.1
2017-01-08T06:11:22.824Z,4.15
2017-01-08T06:12:23.519Z,4.16
2017-01-08T06:13:23.509Z,4.08
2017-01-08T06:14:21.988Z,4.01
2017-01-08T06:15:23.442Z,4.13
2017-01-08T06:16:22.932Z,4.18
2017-01-08T06:17:22.405Z,4.11
2017-01-08T06:18:22.883Z,4.13
2017-01-08T06:19:23.004Z,4.21
2017-01-08T06:20:22.329Z,4.11
2017-01-08T06:21:22.619Z,4.19
2017-01-08T06:22:23.116Z,4.19
2017-01-08T06:23:23.229Z,4.13
2017-01-08T06:24:22.542Z,4.15
2017-01-08T06:25:22.110Z,4.13
2017-01-08T06:26:23.022Z,4.22
2017-01-08T06:27:22.547Z,4.13
2017-01-08T06:28:22.436Z,4.21
2017-01-08T06:29:22.943Z,4.26
2017-01-08T06:30:22.407Z,4.18
2017-01-08T06:31:22.704Z,4.21
2017-01-08T06:32:22.656Z,4.23
2017-01-08T06:33:22.379Z,4.16
2017-01-08T06:34:22.286Z,4.16
2017-01-08T06:35:21.623Z,4.18
2017-01-08T06:36:22.577Z,4.22
2017-01-08T06:37:22.329Z,4.15
2017-01-08T06:38:21.552Z,4.13
2017-01-08T06:39:22.218Z,4.21
2017-01-08T06:40:22.501Z,4.13
2017-01-08T06:41:22.320Z,4.11
2017-01-08T06:42:22.788Z,4.07
2017-01-08T06:43:22.088Z,4.16
2017-01-08T06:44:21.929Z,4.16
2017-01-08T06:45:22.364Z,4.21
2017-01-08T06:46:22.182Z,4.25
2017-01-08T06:47:21.964Z,4.18
2017-01-08T06:48:22.284Z,4.19
2017-01-08T06:49:21.602Z,4.21
2017-01-08T06:50:21.903Z,4.23
2017-01-08T06:51:22.522Z,4.21
2017-01-08T06:52:21.711Z,4.11
2017-01-08T06:53:22.144Z,4.1
2017-01-08T06:54:21.139Z,4.22
2017-01-08T06:55:21.137Z,4.19
2017-01-08T06:56:21.094Z,4.19
2017-01-08T06:57:22.394Z,4.22
2017-01-08T06:58:21.630Z,4.19
2017-01-08T06:59:21.036Z,4.16
2017-01-08T07:00:21.981Z,4.19
2017-01-08T07:01:21.612Z,4.19
2017-01-08T07:02:21.262Z,4.16
2017-01-08T07:03:20.993Z,4.16
2017-01-08T07:04:21.871Z,4.22
2017-01-08T07:05:22.120Z,4.21
2017-01-08T07:06:22.229Z,4.22
2017-01-08T07:07:21.810Z,4.26
2017-01-08T07:08:21.524Z,4.18
2017-01-08T07:09:22.097Z,4.22
2017-01-08T07:10:22.099Z,4.16
2017-01-08T07:11:21.714Z,4.28
2017-01-08T07:12:22.030Z,4.28
2017-01-08T07:13:22.227Z,4.21
2017-01-08T07:14:20.639Z,4.18
2017-01-08T07:15:21.911Z,4.21
2017-01-08T07:16:21.593Z,4.22
2017-01-08T07:17:20.568Z,4.19
2017-01-08T07:18:20.862Z,4.19
2017-01-08T07:19:21.273Z,4.25
2017-01-08T07:20:21.162Z,4.21
2017-01-08T07:21:21.786Z,4.21
2017-01-08T07:22:21.757Z,4.21
2017-01-08T07:23:21.080Z,4.32
2017-01-08T07:24:20.721Z,4.32
2017-01-08T07:25:21.570Z,4.31
2017-01-08T07:26:21.376Z,4.26
2017-01-08T07:27:21.299Z,4.23
2017-01-08T07:28:20.936Z,4.22
2017-01-08T07:29:21.582Z,4.28
2017-01-08T07:30:21.592Z,4.32
2017-01-08T07:31:21.201Z,4.36
2017-01-08T07:32:21.256Z,4.37
2017-01-08T07:33:21.226Z,4.34
2017-01-08T07:34:21.515Z,4.29
2017-01-08T07:35:20.133Z,4.29
2017-01-08T07:36:20.753Z,4.31
2017-01-08T07:37:21.242Z,4.26
2017-01-08T07:38:20.605Z,4.32
2017-01-08T07:39:21.352Z,4.21
2017-01-08T07:40:21.311Z,4.23
2017-01-08T07:41:20.653Z,4.18
2017-01-08T07:42:20.927Z,4.22
2017-01-08T07:43:20.897Z,4.21
2017-01-08T07:44:20.479Z,4.23
2017-01-08T07:45:19.709Z,4.31
2017-01-08T07:46:20.183Z,4.29
2017-01-08T07:47:20.411Z,4.29
2017-01-08T07:48:19.628Z,4.21
2017-01-08T07:49:20.434Z,4.23
2017-01-08T07:50:20.057Z,4.37
2017-01-08T07:51:20.039Z,4.29
2017-01-08T07:52:20.335Z,4.4
2017-01-08T07:53:21.012Z,4.37
2017-01-08T07:54:20.306Z,4.4
2017-01-08T07:55:20.276Z,4.37
2017-01-08T07:56:20.567Z,4.39
2017-01-08T07:57:20.218Z,4.43
2017-01-08T07:58:20.694Z,4.44
2017-01-08T07:59:20.161Z,4.49
2017-01-08T08:00:20.470Z,4.46
2017-01-08T08:01:19.899Z,4.46
2017-01-08T08:02:20.759Z,4.41
2017-01-08T08:03:20.402Z,4.49
2017-01-08T08:04:19.671Z,4.46
2017-01-08T08:05:20.186Z,4.31
2017-01-08T08:06:19.899Z,4.34
2017-01-08T08:07:19.976Z,4.23
2017-01-08T08:08:19.936Z,4.21
2017-01-08T08:09:19.941Z,4.25
2017-01-08T08:10:19.254Z,4.31
2017-01-08T08:11:19.782Z,4.37
2017-01-08T08:12:19.299Z,4.39
2017-01-08T08:13:19.822Z,4.36
2017-01-08T08:14:20.098Z,4.31
2017-01-08T08:15:19.751Z,4.29
2017-01-08T08:16:20.080Z,4.22
2017-01-08T08:17:19.629Z,4.26
2017-01-08T08:18:20.005Z,4.22
2017-01-08T08:19:19.653Z,4.23
2017-01-08T08:20:19.518Z,4.29
2017-01-08T08:21:19.206Z,4.37
2017-01-08T08:22:19.760Z,4.34
2017-01-08T08:23:19.565Z,4.44
2017-01-08T08:24:19.708Z,4.47
2017-01-08T08:25:19.834Z,4.43
2017-01-08T08:26:19.993Z,4.41
2017-01-08T08:27:19.128Z,4.44
2017-01-08T08:28:19.462Z,4.47
2017-01-08T08:29:19.511Z,4.4
2017-01-08T08:30:18.850Z,4.41
2017-01-08T08:31:19.194Z,4.46
2017-01-08T08:32:19.979Z,4.49
2017-01-08T08:33:19.914Z,4.46
2017-01-08T08:34:19.617Z,4.41
2017-01-08T08:35:19.248Z,4.49
2017-01-08T08:36:19.898Z,4.41
2017-01-08T08:37:19.224Z,4.47
2017-01-08T08:38:18.966Z,4.43
2017-01-08T08:39:18.435Z,4.47
2017-01-08T08:40:19.124Z,4.5
2017-01-08T08:41:19.433Z,4.41
2017-01-08T08:42:18.985Z,4.49
2017-01-08T08:43:19.079Z,4.41
2017-01-08T08:44:18.969Z,4.47
2017-01-08T08:45:18.948Z,4.37
2017-01-08T08:46:19.361Z,4.32
2017-01-08T08:47:18.960Z,4.32
2017-01-08T08:48:19.260Z,4.39
2017-01-08T08:49:18.850Z,4.44
2017-01-08T08:50:19.078Z,4.44
2017-01-08T08:51:19.569Z,4.52
2017-01-08T08:52:19.168Z,4.52
2017-01-08T08:53:18.474Z,4.44
2017-01-08T08:54:18.951Z,4.44
2017-01-08T08:55:18.351Z,4.34
2017-01-08T08:56:18.616Z,4.4
2017-01-08T08:57:17.895Z,4.46
2017-01-08T08:58:18.362Z,4.58
2017-01-08T08:59:19.324Z,4.54
2017-01-08T09:00:18.562Z,4.49
2017-01-08T09:01:19.302Z,4.57
2017-01-08T09:02:18.607Z,4.5
2017-01-08T09:03:18.591Z,4.57
2017-01-08T09:04:18.209Z,4.62
2017-01-08T09:05:18.188Z,4.72
2017-01-08T09:06:19.020Z,4.52
2017-01-08T09:07:17.818Z,4.52
2017-01-08T09:08:17.803Z,4.37
2017-01-08T09:09:18.738Z,4.47
2017-01-08T09:10:18.974Z,4.44
2017-01-08T09:11:18.376Z,4.43
2017-01-08T09:12:18.320Z,4.36
2017-01-08T09:13:18.634Z,4.46
2017-01-08T09:14:18.284Z,4.36
2017-01-08T09:15:18.590Z,4.41
2017-01-08T09:16:18.929Z,4.39
2017-01-08T09:17:17.883Z,4.32
2017-01-08T09:18:18.099Z,4.22
2017-01-08T09:19:18.821Z,4.26
2017-01-08T09:20:18.141Z,4.28
2017-01-08T09:21:17.468Z,4.46
2017-01-08T09:22:18.100Z,4.46
2017-01-08T09:23:17.465Z,4.37
2017-01-08T09:24:17.389Z,4.52
2017-01-08T09:25:17.594Z,4.49
2017-01-08T09:26:18.659Z,4.47
2017-01-08T09:27:18.472Z,4.4
2017-01-08T09:28:17.856Z,4.46
2017-01-08T09:29:17.864Z,4.52
2017-01-08T09:30:18.201Z,4.54
2017-01-08T09:31:18.507Z,4.52
2017-01-08T09:32:18.162Z,4.47
2017-01-08T09:33:17.270Z,4.59
2017-01-08T09:34:17.060Z,4.52
2017-01-08T09:35:17.711Z,4.54
2017-01-08T09:36:17.747Z,4.58
2017-01-08T09:37:18.393Z,4.55
2017-01-08T09:38:18.412Z,4.61
2017-01-08T09:39:16.961Z,4.61
2017-01-08T09:40:17.625Z,4.52
2017-01-08T09:41:17.639Z,4.59
2017-01-08T09:42:17.574Z,4.58
2017-01-08T09:43:16.947Z,4.59
2017-01-08T09:44:17.543Z,4.57
2017-01-08T09:45:16.868Z,4.68
2017-01-08T09:46:17.159Z,4.62
2017-01-08T09:47:17.785Z,4.61
2017-01-08T09:48:17.988Z,4.54
2017-01-08T09:49:17.344Z,4.59
2017-01-08T09:50:17.300Z,4.52
2017-01-08T09:51:17.895Z,4.59
2017-01-08T09:52:17.696Z,4.59
2017-01-08T09:53:17.831Z,4.64
2017-01-08T09:54:16.569Z,4.54
2017-01-08T09:55:17.799Z,4.54
2017-01-08T09:56:17.950Z,4.44
2017-01-08T09:57:17.857Z,4.57
2017-01-08T09:58:17.729Z,4.55
2017-01-08T09:59:17.181Z,4.5
2017-01-08T10:00:16.821Z,4.57
2017-01-08T10:01:17.288Z,4.7
2017-01-08T10:02:17.031Z,4.68
2017-01-08T10:03:17.748Z,4.64
2017-01-08T10:04:16.397Z,4.67
2017-01-08T10:05:17.357Z,4.68
2017-01-08T10:06:17.648Z,4.64
2017-01-08T10:07:17.281Z,4.73
2017-01-08T10:08:16.936Z,4.68
2017-01-08T10:09:16.820Z,4.64
2017-01-08T10:10:16.803Z,4.68
2017-01-08T10:11:17.518Z,4.61
2017-01-08T10:12:16.206Z,4.76
2017-01-08T10:13:17.203Z,4.77
2017-01-08T10:14:17.142Z,4.85
2017-01-08T10:15:16.761Z,4.72
2017-01-08T10:16:16.768Z,4.58
2017-01-08T10:17:16.073Z,4.59
2017-01-08T10:18:17.360Z,4.64
2017-01-08T10:19:15.859Z,4.61
2017-01-08T10:20:16.988Z,4.76
2017-01-08T10:21:16.817Z,4.7
2017-01-08T10:22:16.557Z,4.79
2017-01-08T10:23:16.577Z,4.64
2017-01-08T10:24:16.900Z,4.52
2017-01-08T10:25:16.868Z,4.46
2017-01-08T10:26:16.193Z,4.47
2017-01-08T10:27:16.383Z,4.49
2017-01-08T10:28:16.642Z,4.52
2017-01-08T10:29:17.086Z,4.57
2017-01-08T10:30:16.426Z,4.57
2017-01-08T10:31:17.072Z,4.55
2017-01-08T10:32:16.275Z,4.5
2017-01-08T10:33:16.350Z,4.59
2017-01-08T10:34:16.181Z,4.65
2017-01-08T10:35:16.977Z,4.8
2017-01-08T10:36:16.912Z,4.59
2017-01-08T10:37:16.154Z,4.54
2017-01-08T10:38:15.984Z,4.41
2017-01-08T10:39:16.713Z,4.54
2017-01-08T10:40:16.477Z,4.57
2017-01-08T10:41:16.796Z,4.73
2017-01-08T10:42:16.467Z,4.57
2017-01-08T10:43:16.377Z,4.67
2017-01-08T10:44:15.735Z,4.68
2017-01-08T10:45:15.385Z,4.7
2017-01-08T10:46:16.640Z,4.64
2017-01-08T10:47:16.173Z,4.62
2017-01-08T10:48:15.622Z,4.67
2017-01-08T10:49:15.613Z,4.7
2017-01-08T10:50:15.556Z,4.44
2017-01-08T10:51:16.541Z,4.47
2017-01-08T10:52:15.529Z,4.47
2017-01-08T10:53:16.487Z,4.55
2017-01-08T10:54:16.330Z,4.64
2017-01-08T10:55:15.444Z,4.57
2017-01-08T10:56:15.421Z,4.64
2017-01-08T10:57:16.358Z,4.52
2017-01-08T10:58:15.295Z,4.55
2017-01-08T10:59:15.706Z,4.59
2017-01-08T11:00:15.428Z,4.68
2017-01-08T11:01:16.309Z,4.55
2017-01-08T11:02:15.526Z,4.41
2017-01-08T11:03:15.165Z,4.34
2017-01-08T11:04:15.207Z,4.23
2017-01-08T11:05:15.173Z,4.19
2017-01-08T11:06:16.185Z,4.22
2017-01-08T11:07:16.143Z,4.13
2017-01-08T11:08:16.002Z,4.22
2017-01-08T11:09:16.166Z,4.21
2017-01-08T11:10:16.078Z,4.21
2017-01-08T11:11:15.387Z,4.31
2017-01-08T11:12:15.031Z,4.32
2017-01-08T11:13:16.109Z,4.37
2017-01-08T11:14:14.980Z,4.47
2017-01-08T11:15:15.018Z,4.59
2017-01-08T11:16:15.435Z,4.67
2017-01-08T11:17:15.348Z,4.65
2017-01-08T11:18:15.885Z,4.75
2017-01-08T11:19:15.901Z,4.73
2017-01-08T11:20:15.068Z,4.83
2017-01-08T11:21:14.415Z,4.91
2017-01-08T11:22:15.295Z,4.91
2017-01-08T11:23:14.443Z,4.95
2017-01-08T11:24:15.089Z,4.98
2017-01-08T11:25:15.053Z,4.92
2017-01-08T11:26:15.214Z,4.91
2017-01-08T11:27:14.997Z,5.05
2017-01-08T11:28:14.973Z,5.16
2017-01-08T11:29:15.442Z,5.06
2017-01-08T11:30:14.932Z,5.09
2017-01-08T11:31:15.260Z,5.09
2017-01-08T11:32:15.050Z,5.09
2017-01-08T11:33:14.712Z,5.09
2017-01-08T11:34:14.419Z,5.13
2017-01-08T11:35:14.472Z,5.13
2017-01-08T11:36:15.165Z,5.19
2017-01-08T11:37:15.416Z,5.2
2017-01-08T11:38:14.716Z,5.16
2017-01-08T11:39:14.757Z,5.14
2017-01-08T11:40:14.584Z,5.13
2017-01-08T11:41:14.723Z,5.11
2017-01-08T11:42:14.559Z,4.8
2017-01-08T11:43:14.624Z,4.72
2017-01-08T11:44:14.154Z,4.67
2017-01-08T11:45:14.575Z,4.76
2017-01-08T11:46:14.528Z,4.73
2017-01-08T11:47:14.184Z,4.76
2017-01-08T11:48:14.398Z,4.83
2017-01-08T11:49:14.482Z,4.79
2017-01-08T11:50:14.749Z,4.61
2017-01-08T11:51:15.032Z,4.65
2017-01-08T11:52:14.921Z,4.77
2017-01-08T11:53:13.949Z,4.77
2017-01-08T11:54:14.690Z,4.83
2017-01-08T11:55:14.428Z,4.95
2017-01-08T11:56:13.866Z,5.03
2017-01-08T11:57:14.302Z,4.95
2017-01-08T11:58:13.907Z,5.05
2017-01-08T11:59:14.203Z,5.02
2017-01-08T12:00:14.200Z,4.91
2017-01-08T12:01:14.342Z,4.95
2017-01-08T12:02:14.676Z,5.01
2017-01-08T12:03:14.093Z,4.84
2017-01-08T12:04:14.400Z,4.8
2017-01-08T12:05:14.764Z,4.77
2017-01-08T12:06:13.822Z,4.83
2017-01-08T12:07:14.040Z,4.75
2017-01-08T12:08:14.001Z,4.77
2017-01-08T12:09:14.651Z,4.75
2017-01-08T12:10:13.566Z,4.85
2017-01-08T12:11:13.780Z,4.77
2017-01-08T12:12:13.143Z,4.92
2017-01-08T12:13:13.865Z,5.02
2017-01-08T12:14:14.519Z,4.98
2017-01-08T12:15:13.504Z,4.92
2017-01-08T12:16:13.459Z,4.96
2017-01-08T12:17:13.457Z,4.99
2017-01-08T12:18:13.862Z,5.06
2017-01-08T12:19:13.370Z,5.1
2017-01-08T12:20:13.290Z,5.19
2017-01-08T12:21:14.302Z,5.1
2017-01-08T12:22:14.181Z,5.05
2017-01-08T12:23:13.603Z,5.13
2017-01-08T12:24:13.595Z,5.14
2017-01-08T12:25:13.552Z,4.99
2017-01-08T12:26:14.215Z,5.09
2017-01-08T12:27:13.513Z,5.11
2017-01-08T12:28:13.482Z,5.11
2017-01-08T12:29:14.174Z,5.21
2017-01-08T12:30:13.123Z,5.19
2017-01-08T12:31:13.091Z,5.29
2017-01-08T12:32:13.395Z,5.29
2017-01-08T12:33:13.076Z,5.16
2017-01-08T12:34:13.851Z,5.09
2017-01-08T12:35:12.594Z,5.09
2017-01-08T12:36:13.653Z,5.16
2017-01-08T12:37:13.367Z,5.1
2017-01-08T12:38:13.165Z,5.11
2017-01-08T12:39:13.885Z,5.13
2017-01-08T12:40:13.897Z,5.1
2017-01-08T12:41:13.170Z,5.17
2017-01-08T12:42:13.079Z,5.2
2017-01-08T12:43:13.022Z,5.17
2017-01-08T12:44:12.375Z,5.32
2017-01-08T12:45:13.088Z,5.26
2017-01-08T12:46:13.730Z,5.24
2017-01-08T12:47:12.289Z,5.26
2017-01-08T12:48:12.939Z,5.14
2017-01-08T12:49:12.655Z,5.11
2017-01-08T12:50:12.975Z,5.19
2017-01-08T12:51:12.608Z,5.26
2017-01-08T12:52:13.326Z,5.26
2017-01-08T12:53:12.895Z,5.23
2017-01-08T12:54:13.492Z,5.29
2017-01-08T12:55:12.507Z,5.31
2017-01-08T12:56:12.834Z,5.38
2017-01-08T12:57:12.066Z,5.39
2017-01-08T12:58:12.793Z,5.37
2017-01-08T12:59:13.076Z,5.26
2017-01-08T13:00:13.042Z,5.1
2017-01-08T13:01:13.209Z,5.16
2017-01-08T13:02:12.995Z,5.16
2017-01-08T13:03:13.150Z,5.21
2017-01-08T13:04:11.889Z,5.24
2017-01-08T13:05:12.259Z,5.26
2017-01-08T13:06:13.021Z,5.31
2017-01-08T13:07:12.543Z,5.29
2017-01-08T13:08:12.720Z,5.19
2017-01-08T13:09:12.909Z,5.16
2017-01-08T13:10:13.129Z,5.11
2017-01-08T13:11:12.790Z,5.06
2017-01-08T13:12:13.089Z,5.05
2017-01-08T13:13:12.092Z,5.05
2017-01-08T13:14:12.902Z,5.19
2017-01-08T13:15:12.416Z,5.21
2017-01-08T13:16:12.674Z,5.05
2017-01-08T13:17:12.686Z,5.19
2017-01-08T13:18:12.635Z,5.16
2017-01-08T13:19:12.267Z,5.26
2017-01-08T13:20:12.654Z,5.23
2017-01-08T13:21:12.229Z,5.23